createdAt,value
2019-05-20T00:00:40.742Z,12.20
2019-05-20T00:01:46.287Z,12.20
2019-05-20T00:02:51.447Z,12.20
2019-05-20T00:03:57.017Z,12.20
2019-05-20T00:05:01.921Z,12.20
2019-05-20T00:06:07.846Z,12.20
2019-05-20T00:07:13.516Z,12.20
2019-05-20T00:08:18.961Z,12.20
2019-05-20T00:09:24.115Z,12.30
2019-05-20T00:10:29.743Z,12.40
2019-05-20T00:11:34.864Z,12.50
2019-05-20T00:12:40.609Z,12.60
2019-05-20T00:13:45.528Z,12.70
2019-05-20T00:14:50.913Z,12.80
2019-05-20T00:15:55.902Z,12.90
2019-05-20T00:17:01.364Z,12.90
2019-05-20T00:18:06.420Z,13.10
2019-05-20T00:19:11.796Z,13.20
2019-05-20T00:20:16.726Z,13.40
2019-05-20T00:21:22.314Z,13.60
2019-05-20T00:22:27.196Z,13.70
2019-05-20T00:23:32.572Z,13.80
2019-05-20T00:24:37.692Z,13.80
2019-05-20T00:25:43.345Z,13.80
2019-05-20T00:26:48.219Z,13.90
2019-05-20T00:27:53.732Z,14.00
2019-05-20T00:28:58.837Z,14.10
2019-05-20T00:30:04.741Z,14.10
2019-05-20T00:31:09.597Z,14.10
2019-05-20T00:32:15.121Z,14.20
2019-05-20T00:33:20.020Z,14.20
2019-05-20T00:34:34.649Z,14.20
2019-05-20T00:35:32.128Z,14.20
2019-05-20T00:36:37.627Z,14.20
2019-05-20T00:37:42.598Z,14.20
2019-05-20T00:39:06.527Z,14.20
2019-05-20T00:40:11.807Z,14.10
2019-05-20T00:41:17.292Z,14.20
2019-05-20T00:42:25.181Z,14.20
2019-05-20T00:43:30.680Z,14.10
2019-05-20T00:44:35.553Z,14.10
2019-05-20T00:45:41.127Z,14.10
2019-05-20T00:46:46.372Z,14.20
2019-05-20T00:47:51.793Z,14.10
2019-05-20T00:48:56.762Z,14.20
2019-05-20T00:50:02.922Z,14.30
2019-05-20T00:51:07.804Z,14.30
2019-05-20T00:52:13.591Z,14.40
2019-05-20T00:53:18.531Z,14.30
2019-05-20T00:54:24.095Z,14.40
2019-05-20T00:55:32.223Z,14.30
2019-05-20T00:56:38.232Z,14.30
2019-05-20T00:57:43.248Z,14.20
2019-05-20T00:58:48.607Z,14.10
2019-05-20T00:59:53.595Z,14.10
2019-05-20T01:00:58.927Z,14.00
2019-05-20T01:02:03.768Z,14.00
2019-05-20T01:03:09.328Z,13.90
2019-05-20T01:04:14.283Z,13.80
2019-05-20T01:05:20.227Z,13.80
2019-05-20T01:06:25.357Z,13.70
2019-05-20T01:07:30.903Z,13.70
2019-05-20T01:08:35.688Z,13.70
2019-05-20T01:09:41.207Z,13.60
2019-05-20T01:10:46.372Z,13.60
2019-05-20T01:11:51.944Z,13.60
2019-05-20T01:12:56.848Z,13.60
2019-05-20T01:14:02.273Z,13.70
2019-05-20T01:15:07.516Z,13.70
2019-05-20T01:16:12.845Z,13.80
2019-05-20T01:17:17.697Z,13.80
2019-05-20T01:18:23.254Z,13.90
2019-05-20T01:19:28.225Z,14.00
2019-05-20T01:20:33.605Z,14.00
2019-05-20T01:21:38.479Z,14.00
2019-05-20T01:22:44.263Z,14.10
2019-05-20T01:23:49.175Z,14.20
2019-05-20T01:24:54.576Z,14.20
2019-05-20T01:25:59.371Z,14.20
2019-05-20T01:27:04.937Z,14.10
2019-05-20T01:28:09.999Z,14.20
2019-05-20T01:29:15.377Z,14.10
2019-05-20T01:30:20.728Z,14.10
2019-05-20T01:31:26.423Z,14.10
2019-05-20T01:32:31.253Z,14.10
2019-05-20T01:33:36.584Z,14.00
2019-05-20T01:34:41.519Z,14.00
2019-05-20T01:35:46.980Z,14.00
2019-05-20T01:36:51.855Z,13.90
2019-05-20T01:37:57.287Z,14.00
2019-05-20T01:39:02.259Z,14.00
2019-05-20T01:40:08.832Z,13.90
2019-05-20T01:41:13.720Z,13.90
2019-05-20T01:42:19.183Z,13.80
2019-05-20T01:43:24.267Z,13.70
2019-05-20T01:44:29.713Z,13.70
2019-05-20T01:45:34.716Z,13.60
2019-05-20T01:46:40.077Z,13.60
2019-05-20T01:47:44.988Z,13.50
2019-05-20T01:48:50.471Z,13.50
2019-05-20T01:49:55.441Z,13.40
2019-05-20T01:51:00.774Z,13.40
2019-05-20T01:52:05.767Z,13.30
2019-05-20T01:53:11.331Z,13.40
2019-05-20T01:54:16.134Z,13.30
2019-05-20T01:55:21.707Z,13.30
2019-05-20T01:56:26.607Z,13.20
2019-05-20T01:57:31.928Z,13.20
2019-05-20T01:58:39.048Z,13.20
2019-05-20T01:59:43.801Z,13.10
2019-05-20T02:00:48.740Z,13.10
2019-05-20T02:01:54.067Z,13.00
2019-05-20T02:02:59.000Z,13.00
2019-05-20T02:04:04.535Z,13.00
2019-05-20T02:05:09.537Z,13.00
2019-05-20T02:06:14.836Z,13.00
2019-05-20T02:07:19.850Z,13.00
2019-05-20T02:08:25.260Z,13.00
2019-05-20T02:09:30.067Z,13.00
2019-05-20T02:10:35.612Z,13.00
2019-05-20T02:11:40.484Z,13.00
2019-05-20T02:12:45.943Z,13.00
2019-05-20T02:13:57.627Z,13.00
2019-05-20T02:15:09.292Z,13.00
2019-05-20T02:16:14.200Z,12.90
2019-05-20T02:17:19.504Z,12.90
2019-05-20T02:18:24.415Z,12.90
2019-05-20T02:19:29.891Z,12.80
2019-05-20T02:20:34.791Z,12.80
2019-05-20T02:21:40.150Z,12.80
2019-05-20T02:22:45.170Z,12.70
2019-05-20T02:23:50.704Z,12.70
2019-05-20T02:24:55.508Z,12.70
2019-05-20T02:26:00.962Z,12.60
2019-05-20T02:27:05.881Z,12.60
2019-05-20T02:28:11.432Z,12.50
2019-05-20T02:29:16.398Z,12.50
2019-05-20T02:30:21.995Z,12.50
2019-05-20T02:31:26.885Z,12.50
2019-05-20T02:32:32.228Z,12.50
2019-05-20T02:33:50.714Z,12.40
2019-05-20T02:34:44.304Z,12.50
2019-05-20T02:35:49.451Z,12.40
2019-05-20T02:36:54.782Z,12.40
2019-05-20T02:37:59.789Z,12.40
2019-05-20T02:39:06.575Z,12.30
2019-05-20T02:40:12.761Z,12.30
2019-05-20T02:41:18.385Z,12.30
2019-05-20T02:42:23.259Z,12.30
2019-05-20T02:43:29.021Z,12.30
2019-05-20T02:44:33.899Z,12.30
2019-05-20T02:45:39.237Z,12.30
2019-05-20T02:46:44.013Z,12.30
2019-05-20T02:47:49.339Z,12.30
2019-05-20T02:48:54.239Z,12.30
2019-05-20T02:49:59.693Z,12.20
2019-05-20T02:51:04.627Z,12.20
2019-05-20T02:52:10.273Z,12.20
2019-05-20T02:53:15.151Z,12.20
2019-05-20T02:54:20.627Z,12.20
2019-05-20T02:55:25.792Z,12.20
2019-05-20T02:56:31.505Z,12.30
2019-05-20T02:57:36.260Z,12.30
2019-05-20T02:58:41.592Z,12.30
2019-05-20T02:59:46.350Z,12.30
2019-05-20T03:00:51.762Z,12.20
2019-05-20T03:01:56.570Z,12.30
2019-05-20T03:03:01.996Z,12.30
2019-05-20T03:04:12.721Z,12.20
2019-05-20T03:05:14.057Z,12.30
2019-05-20T03:06:18.832Z,12.30
2019-05-20T03:07:24.430Z,12.30
2019-05-20T03:08:29.209Z,12.30
2019-05-20T03:09:34.569Z,12.30
2019-05-20T03:10:39.447Z,12.30
2019-05-20T03:11:45.047Z,12.30
2019-05-20T03:12:49.969Z,12.30
2019-05-20T03:13:55.464Z,12.40
2019-05-20T03:15:00.257Z,12.40
2019-05-20T03:16:05.745Z,12.40
2019-05-20T03:17:10.560Z,12.40
2019-05-20T03:18:15.999Z,12.40
2019-05-20T03:19:20.798Z,12.40
2019-05-20T03:20:26.253Z,12.30
2019-05-20T03:21:31.057Z,12.40
2019-05-20T03:22:36.442Z,12.40
2019-05-20T03:23:41.349Z,12.40
2019-05-20T03:24:46.662Z,12.40
2019-05-20T03:25:51.591Z,12.40
2019-05-20T03:26:57.014Z,12.50
2019-05-20T03:28:01.830Z,12.50
2019-05-20T03:29:07.269Z,12.50
2019-05-20T03:30:14.852Z,12.50
2019-05-20T03:31:20.709Z,12.50
2019-05-20T03:32:25.582Z,12.50
2019-05-20T03:33:31.069Z,12.60
2019-05-20T03:34:47.653Z,12.60
2019-05-20T03:35:42.981Z,12.60
2019-05-20T03:36:47.804Z,12.70
2019-05-20T03:37:53.253Z,12.70
2019-05-20T03:38:58.061Z,12.70
2019-05-20T03:40:03.620Z,12.80
2019-05-20T03:41:08.374Z,12.80
2019-05-20T03:42:13.886Z,12.80
2019-05-20T03:43:18.776Z,12.80
2019-05-20T03:44:24.140Z,12.90
2019-05-20T03:45:28.991Z,12.90
2019-05-20T03:46:34.529Z,12.90
2019-05-20T03:47:39.330Z,13.00
2019-05-20T03:48:44.669Z,12.90
2019-05-20T03:49:49.601Z,13.00
2019-05-20T03:50:55.194Z,13.00
2019-05-20T03:52:00.030Z,13.10
2019-05-20T03:53:05.410Z,13.20
2019-05-20T03:54:10.284Z,13.40
2019-05-20T03:55:15.774Z,13.50
2019-05-20T03:56:20.691Z,13.60
2019-05-20T03:57:26.135Z,13.70
2019-05-20T03:58:30.957Z,13.80
2019-05-20T03:59:36.374Z,13.90
2019-05-20T04:00:45.786Z,13.90
2019-05-20T04:01:51.184Z,14.00
2019-05-20T04:02:55.997Z,14.10
2019-05-20T04:04:01.392Z,14.10
2019-05-20T04:05:06.696Z,14.20
2019-05-20T04:06:12.085Z,14.30
2019-05-20T04:07:16.931Z,14.40
2019-05-20T04:08:22.465Z,14.40
2019-05-20T04:09:27.248Z,14.50
2019-05-20T04:10:32.688Z,14.50
2019-05-20T04:11:37.641Z,14.50
2019-05-20T04:12:43.303Z,14.60
2019-05-20T04:13:48.234Z,14.60
2019-05-20T04:14:53.717Z,14.60
2019-05-20T04:15:58.713Z,14.70
2019-05-20T04:17:04.067Z,14.70
2019-05-20T04:18:09.365Z,14.70
2019-05-20T04:19:14.901Z,14.80
2019-05-20T04:20:19.935Z,14.80
2019-05-20T04:21:25.694Z,14.80
2019-05-20T04:22:30.669Z,14.90
2019-05-20T04:23:36.463Z,14.90
2019-05-20T04:24:41.324Z,14.90
2019-05-20T04:25:46.874Z,15.00
2019-05-20T15:49:06.591Z,21.20
2019-05-20T15:50:12.687Z,20.90
2019-05-20T15:51:17.554Z,20.80
2019-05-20T15:52:23.102Z,20.80
2019-05-20T15:53:28.155Z,20.70
2019-05-20T15:54:33.640Z,20.70
2019-05-20T15:55:39.767Z,20.70
2019-05-20T15:56:45.247Z,20.70
2019-05-20T15:57:50.151Z,20.70
2019-05-20T15:58:55.910Z,20.80
2019-05-20T16:00:00.810Z,20.80
2019-05-20T16:01:06.539Z,20.70
2019-05-20T16:02:11.729Z,20.60
2019-05-20T16:03:17.281Z,20.60
2019-05-20T16:04:22.245Z,20.60
2019-05-20T16:05:27.998Z,20.70
2019-05-20T16:06:33.128Z,20.80
2019-05-20T16:07:38.594Z,20.90
2019-05-20T16:08:43.562Z,21.00
2019-05-20T16:09:49.078Z,21.10
2019-05-20T16:10:53.905Z,21.10
2019-05-20T16:11:59.409Z,21.10
2019-05-20T16:13:04.455Z,21.20
2019-05-20T16:14:10.007Z,21.10
2019-05-20T16:15:15.314Z,21.10
2019-05-20T16:16:20.797Z,21.10
2019-05-20T16:17:25.869Z,21.10
2019-05-20T16:18:31.279Z,21.00
2019-05-20T16:19:36.409Z,20.80
2019-05-20T16:20:42.390Z,20.70
2019-05-20T16:21:48.086Z,20.60
2019-05-20T16:22:55.026Z,20.50
2019-05-20T16:24:00.039Z,20.30
2019-05-20T16:25:06.064Z,20.20
2019-05-20T16:26:11.321Z,20.10
2019-05-20T16:27:17.172Z,20.00
2019-05-20T16:28:22.162Z,19.90
2019-05-20T16:29:27.670Z,19.80
2019-05-20T16:30:32.811Z,19.70
2019-05-20T16:31:38.517Z,19.40
2019-05-20T16:32:43.781Z,19.30
2019-05-20T16:33:49.708Z,19.10
2019-05-20T16:34:54.747Z,18.90
2019-05-20T16:36:00.757Z,18.70
2019-05-20T16:37:06.020Z,18.70
2019-05-20T16:38:11.644Z,18.60
2019-05-20T16:39:16.979Z,18.50
2019-05-20T16:40:22.499Z,18.40
2019-05-20T16:41:27.673Z,18.30
2019-05-20T16:42:33.152Z,18.30
2019-05-20T16:43:38.067Z,18.30
2019-05-20T16:44:43.546Z,18.30
2019-05-20T16:45:48.472Z,18.30
2019-05-20T16:46:53.984Z,18.40
2019-05-20T16:47:59.102Z,18.40
2019-05-20T16:49:04.577Z,18.40
2019-05-20T16:50:10.207Z,18.40
2019-05-20T16:51:16.216Z,18.30
2019-05-20T16:52:21.140Z,18.20
2019-05-20T16:53:26.937Z,18.10
2019-05-20T16:54:32.032Z,18.10
2019-05-20T16:55:37.567Z,18.00
2019-05-20T16:56:42.624Z,17.90
2019-05-20T16:57:48.270Z,17.80
2019-05-20T16:58:53.298Z,17.80
2019-05-20T16:59:58.828Z,17.70
2019-05-20T17:01:03.898Z,17.70
2019-05-20T17:02:09.930Z,17.60
2019-05-20T17:03:14.957Z,17.60
2019-05-20T17:04:20.467Z,17.70
2019-05-20T17:05:25.595Z,17.70
2019-05-20T17:06:31.161Z,17.60
2019-05-20T17:07:36.108Z,17.60
2019-05-20T17:08:41.491Z,17.50
2019-05-20T17:09:46.289Z,17.60
2019-05-20T17:10:51.717Z,17.50
2019-05-20T17:11:56.520Z,17.40
2019-05-20T17:13:01.933Z,17.50
2019-05-20T17:14:09.989Z,17.30
2019-05-20T17:15:14.174Z,17.30
2019-05-20T17:16:19.018Z,17.20
2019-05-20T17:17:24.409Z,17.10
2019-05-20T17:18:29.367Z,17.10
2019-05-20T17:19:34.906Z,17.10
2019-05-20T17:20:39.879Z,17.10
2019-05-20T17:21:45.294Z,17.10
2019-05-20T17:22:50.268Z,17.20
2019-05-20T17:23:55.675Z,17.30
2019-05-20T17:25:00.553Z,17.20
2019-05-20T17:26:05.955Z,17.20
2019-05-20T17:27:11.071Z,17.20
2019-05-20T17:28:16.349Z,17.20
2019-05-20T17:29:21.139Z,17.10
2019-05-20T17:30:26.581Z,17.20
2019-05-20T17:31:31.504Z,17.20
2019-05-20T17:32:36.822Z,17.20
2019-05-20T17:33:41.786Z,17.20
2019-05-20T17:34:47.291Z,17.20
2019-05-20T17:35:52.201Z,17.20
2019-05-20T17:36:57.787Z,17.20
2019-05-20T17:38:02.776Z,17.10
2019-05-20T17:39:08.948Z,17.20
2019-05-20T17:40:14.695Z,17.10
2019-05-20T17:41:20.261Z,17.20
2019-05-20T17:42:25.050Z,17.20
2019-05-20T17:43:30.505Z,17.20
2019-05-20T17:44:35.302Z,17.20
2019-05-20T17:45:40.801Z,17.20
2019-05-20T17:46:45.598Z,17.30
2019-05-20T17:47:51.090Z,17.20
2019-05-20T17:48:55.861Z,17.30
2019-05-20T17:50:01.373Z,17.30
2019-05-20T17:51:06.316Z,17.30
2019-05-20T17:52:11.643Z,17.30
2019-05-20T17:53:16.508Z,17.30
2019-05-20T17:54:21.921Z,17.30
2019-05-20T17:55:26.885Z,17.30
2019-05-20T17:56:32.467Z,17.30
2019-05-20T17:57:37.551Z,17.30
2019-05-20T17:58:42.991Z,17.30
2019-05-20T17:59:47.820Z,17.30
2019-05-20T18:00:53.283Z,17.30
2019-05-20T18:01:58.218Z,17.30
2019-05-20T18:03:03.828Z,17.30
2019-05-20T18:04:08.669Z,17.30
2019-05-20T18:05:14.972Z,17.30
2019-05-20T18:06:20.183Z,17.20
2019-05-20T18:07:25.719Z,17.30
2019-05-20T18:08:32.507Z,17.20
2019-05-20T18:09:39.154Z,17.20
2019-05-20T18:10:44.268Z,17.20
2019-05-20T18:11:49.758Z,17.20
2019-05-20T18:12:54.733Z,17.20
2019-05-20T18:14:00.262Z,17.20
2019-05-20T18:15:05.661Z,17.20
2019-05-20T18:16:11.469Z,17.20
2019-05-20T18:17:16.403Z,17.10
2019-05-20T18:18:21.877Z,17.10
2019-05-20T18:19:26.836Z,17.20
2019-05-20T18:20:32.421Z,17.20
2019-05-20T18:21:37.499Z,17.20
2019-05-20T18:22:42.947Z,17.20
2019-05-20T18:23:47.834Z,17.10
2019-05-20T18:24:53.283Z,17.10
2019-05-20T18:25:58.257Z,17.20
2019-05-20T18:27:04.177Z,17.10
2019-05-20T18:28:09.091Z,17.20
2019-05-20T18:29:14.747Z,17.20
2019-05-20T18:30:19.786Z,17.20
2019-05-20T18:31:32.285Z,17.20
2019-05-20T18:32:31.877Z,17.20
2019-05-20T18:33:37.416Z,17.10
2019-05-20T18:34:42.501Z,17.10
2019-05-20T18:35:48.029Z,17.10
2019-05-20T18:36:52.865Z,17.10
2019-05-20T18:37:58.601Z,17.10
2019-05-20T18:39:04.628Z,17.10
2019-05-20T18:40:14.421Z,17.00
2019-05-20T18:41:17.381Z,17.00
2019-05-20T18:42:22.852Z,17.10
2019-05-20T18:43:27.741Z,17.00
2019-05-20T18:44:33.368Z,17.00
2019-05-20T18:45:38.698Z,17.00
2019-05-20T18:46:44.190Z,16.90
2019-05-20T18:47:49.256Z,16.90
2019-05-20T18:48:54.723Z,16.80
2019-05-20T18:49:59.590Z,16.90
2019-05-20T18:51:05.288Z,16.80
2019-05-20T18:52:10.303Z,16.80
2019-05-20T18:53:16.345Z,16.70
2019-05-20T18:54:21.599Z,16.70
2019-05-20T18:55:27.365Z,16.70
2019-05-20T18:56:32.453Z,16.60
2019-05-20T18:57:38.124Z,16.60
2019-05-20T18:58:43.053Z,16.60
2019-05-20T18:59:50.216Z,16.60
2019-05-20T19:00:55.468Z,16.50
2019-05-20T19:02:06.566Z,16.50
2019-05-20T19:03:12.234Z,16.50
2019-05-20T19:04:17.953Z,16.50
2019-05-20T19:05:23.237Z,16.40
2019-05-20T19:06:29.191Z,16.40
2019-05-20T19:07:34.073Z,16.50
2019-05-20T19:08:39.490Z,16.40
2019-05-20T19:09:44.477Z,16.40
2019-05-20T19:11:00.707Z,16.50
2019-05-20T19:12:11.688Z,16.50
2019-05-20T19:13:18.360Z,16.50
2019-05-20T19:14:24.906Z,16.50
2019-05-20T19:15:30.436Z,16.50
2019-05-20T19:16:35.397Z,16.50
2019-05-20T19:17:47.367Z,16.50
2019-05-20T19:18:55.124Z,16.50
2019-05-20T19:20:01.663Z,16.50
2019-05-20T19:21:06.717Z,16.50
2019-05-20T19:22:12.318Z,16.50
2019-05-20T19:23:17.513Z,16.50
2019-05-20T19:24:24.219Z,16.50
2019-05-20T19:25:37.765Z,16.50
2019-05-20T19:26:40.072Z,16.50
2019-05-20T19:27:49.593Z,16.50
2019-05-20T19:28:56.715Z,16.50
2019-05-20T19:30:05.475Z,16.60
2019-05-20T19:31:12.208Z,16.50
2019-05-20T19:32:18.743Z,16.40
2019-05-20T19:33:24.648Z,16.40
2019-05-20T19:34:35.621Z,16.40
2019-05-20T19:35:42.850Z,16.40
2019-05-20T19:36:48.032Z,16.40
2019-05-20T19:37:53.479Z,16.50
2019-05-20T19:38:58.529Z,16.50
2019-05-20T19:40:04.497Z,16.50
2019-05-20T19:41:18.667Z,16.40
2019-05-20T19:42:26.520Z,16.40
2019-05-20T19:43:31.606Z,16.40
2019-05-20T19:44:41.357Z,16.40
2019-05-20T19:45:46.652Z,16.40
2019-05-20T19:46:54.619Z,16.40
2019-05-20T19:48:00.362Z,16.50
2019-05-20T19:49:07.130Z,16.50
2019-05-20T19:50:14.523Z,16.40
2019-05-20T19:51:20.363Z,16.30
2019-05-20T19:52:27.122Z,16.30
2019-05-20T19:53:37.713Z,16.20
2019-05-20T19:54:44.122Z,16.10
2019-05-20T19:55:49.760Z,16.10
2019-05-20T19:56:54.784Z,16.00
2019-05-20T19:58:02.514Z,16.00
2019-05-20T19:59:10.466Z,15.90
2019-05-20T20:00:20.065Z,15.90
2019-05-20T20:01:25.964Z,15.90
2019-05-20T20:02:33.280Z,15.80
2019-05-20T20:03:38.511Z,15.80
2019-05-20T20:04:44.387Z,15.80
2019-05-20T20:05:51.178Z,15.70
2019-05-20T20:06:59.529Z,15.70
2019-05-20T20:08:07.381Z,15.70
2019-05-20T20:09:16.827Z,15.70
2019-05-20T20:10:22.305Z,15.60
2019-05-20T20:11:27.842Z,15.60
2019-05-20T20:12:35.838Z,15.60
2019-05-20T20:13:44.317Z,15.60
2019-05-20T20:14:51.605Z,15.50
2019-05-20T20:15:59.580Z,15.60
2019-05-20T20:17:04.849Z,15.70
2019-05-20T20:18:12.614Z,15.80
2019-05-20T20:19:18.590Z,15.80
2019-05-20T20:20:24.265Z,15.90
2019-05-20T20:21:29.273Z,15.90
2019-05-20T20:22:34.802Z,16.00
2019-05-20T20:23:40.088Z,16.00
2019-05-20T20:24:45.827Z,16.10
2019-05-20T20:25:50.952Z,16.10
2019-05-20T20:26:57.467Z,16.10
2019-05-20T20:28:02.688Z,16.20
2019-05-20T20:29:11.044Z,16.20
2019-05-20T20:30:15.221Z,16.30
2019-05-20T20:31:20.840Z,16.30
2019-05-20T20:32:37.474Z,16.30
2019-05-20T20:33:33.191Z,16.20
2019-05-20T20:34:38.272Z,16.20
2019-05-20T20:35:43.871Z,16.30
2019-05-20T20:36:49.264Z,16.20
2019-05-20T20:37:54.908Z,16.20
2019-05-20T20:39:00.169Z,16.10
2019-05-20T20:40:06.292Z,16.20
2019-05-20T20:41:11.562Z,16.10
2019-05-20T20:42:17.296Z,16.10
2019-05-20T20:43:22.575Z,16.10
2019-05-20T20:44:28.101Z,16.00
2019-05-20T20:45:32.912Z,16.00
2019-05-20T20:46:40.490Z,16.00
2019-05-20T20:47:45.235Z,16.00
2019-05-20T20:48:50.900Z,16.00
2019-05-20T20:49:55.863Z,16.00
2019-05-20T20:51:01.556Z,16.00
2019-05-20T20:52:06.543Z,15.90
2019-05-20T20:53:12.254Z,15.90
2019-05-20T20:54:17.285Z,15.90
2019-05-20T20:55:22.766Z,16.00
2019-05-20T20:56:28.351Z,16.00
2019-05-20T20:57:34.033Z,16.00
2019-05-20T20:58:39.126Z,15.90
2019-05-20T20:59:44.784Z,15.80
2019-05-20T21:00:49.972Z,15.80
2019-05-20T21:01:59.120Z,15.80
2019-05-20T21:03:02.399Z,15.70
2019-05-20T21:04:08.223Z,15.70
2019-05-20T21:05:13.653Z,15.60
2019-05-20T21:06:19.220Z,15.60
2019-05-20T21:07:24.139Z,15.60
2019-05-20T21:08:29.631Z,15.60
2019-05-20T21:09:34.621Z,15.50
2019-05-20T21:10:40.236Z,15.50
2019-05-20T21:11:45.242Z,15.50
2019-05-20T21:12:50.729Z,15.50
2019-05-20T21:13:55.744Z,15.50
2019-05-20T21:15:01.798Z,15.50
2019-05-20T21:16:06.888Z,15.50
2019-05-20T21:17:12.444Z,15.50
2019-05-20T21:18:17.456Z,15.40
2019-05-20T21:19:23.018Z,15.40
2019-05-20T21:20:28.103Z,15.40
2019-05-20T21:21:33.862Z,15.40
2019-05-20T21:22:38.893Z,15.40
2019-05-20T21:23:44.375Z,15.40
2019-05-20T21:24:49.284Z,15.40
2019-05-20T21:25:54.855Z,15.40
2019-05-20T21:26:59.853Z,15.40
2019-05-20T21:28:05.326Z,15.40
2019-05-20T21:29:10.589Z,15.40
2019-05-20T21:30:17.710Z,15.40
2019-05-20T21:31:22.616Z,15.40
2019-05-20T21:32:28.460Z,15.40
2019-05-20T21:33:33.414Z,15.40
2019-05-20T21:34:39.035Z,15.40
2019-05-20T21:35:45.456Z,15.40
2019-05-20T21:36:51.255Z,15.40
2019-05-20T21:37:56.129Z,15.40
2019-05-20T21:39:01.489Z,15.30
2019-05-20T21:40:06.796Z,15.40
2019-05-20T21:41:12.301Z,15.40
2019-05-20T21:42:17.138Z,15.40
2019-05-20T21:43:22.631Z,15.40
2019-05-20T21:44:27.568Z,15.40
2019-05-20T21:45:33.191Z,15.40
2019-05-20T21:46:38.135Z,15.40
2019-05-20T21:47:44.850Z,15.40
2019-05-20T21:48:49.853Z,15.40
2019-05-20T21:49:55.333Z,15.30
2019-05-20T21:51:00.232Z,15.30
2019-05-20T21:52:05.720Z,15.30
2019-05-20T21:53:10.532Z,15.30
2019-05-20T21:54:16.503Z,15.30
2019-05-20T21:55:21.593Z,15.20
2019-05-20T21:56:27.263Z,15.30
2019-05-20T21:57:32.254Z,15.30
2019-05-20T21:58:37.977Z,15.30
2019-05-20T21:59:42.836Z,15.30
2019-05-20T22:00:52.139Z,15.30
2019-05-20T22:01:57.065Z,15.30
2019-05-20T22:03:02.544Z,15.30
2019-05-20T22:04:07.581Z,15.30
2019-05-20T22:05:13.397Z,15.30
2019-05-20T22:06:18.685Z,15.20
2019-05-20T22:07:24.317Z,15.20
2019-05-20T22:08:29.312Z,15.20
2019-05-20T22:09:34.990Z,15.20
2019-05-20T22:10:39.987Z,15.20
2019-05-20T22:11:45.464Z,15.20
2019-05-20T22:12:50.720Z,15.20
2019-05-20T22:13:56.327Z,15.10
2019-05-20T22:15:01.116Z,15.10
2019-05-20T22:16:06.614Z,15.10
2019-05-20T22:17:11.523Z,15.10
2019-05-20T22:18:17.019Z,15.00
2019-05-20T22:19:21.785Z,15.00
2019-05-20T22:20:27.300Z,15.00
2019-05-20T22:21:38.133Z,15.00
2019-05-20T22:22:51.499Z,15.00
2019-05-20T22:24:01.572Z,15.00
2019-05-20T22:25:07.297Z,15.10
2019-05-20T22:26:12.232Z,15.10
2019-05-20T22:27:17.732Z,15.10
2019-05-20T22:28:22.564Z,15.10
2019-05-20T22:29:29.155Z,15.10
2019-05-20T22:30:34.072Z,15.10
2019-05-20T22:31:39.591Z,15.10
2019-05-20T22:32:44.653Z,15.00
2019-05-20T22:33:50.115Z,15.10
2019-05-20T22:34:55.055Z,15.10
2019-05-20T22:36:00.440Z,15.10
2019-05-20T22:37:05.374Z,15.00
2019-05-20T22:38:10.871Z,15.00
2019-05-20T22:39:15.756Z,15.10
2019-05-20T22:40:21.229Z,15.10
2019-05-20T22:41:26.146Z,15.20
2019-05-20T22:42:31.655Z,15.20
2019-05-20T22:43:36.643Z,15.20
2019-05-20T22:44:42.136Z,15.30
2019-05-20T22:45:47.092Z,15.40
2019-05-20T22:46:52.608Z,15.50
2019-05-20T22:47:57.565Z,15.50
2019-05-20T22:49:02.924Z,15.60
2019-05-20T22:50:07.922Z,15.70
2019-05-20T22:51:13.407Z,15.70
2019-05-20T22:52:18.455Z,15.70
2019-05-20T22:53:23.831Z,15.70
2019-05-20T22:54:28.807Z,15.70
2019-05-20T22:55:34.192Z,15.70
2019-05-20T22:56:39.187Z,15.80
2019-05-20T22:57:44.796Z,15.70
2019-05-20T22:58:49.800Z,15.80
2019-05-20T22:59:55.221Z,15.80
2019-05-20T23:01:00.183Z,15.80
2019-05-20T23:02:05.780Z,15.80
2019-05-20T23:03:10.561Z,15.80
2019-05-20T23:04:15.902Z,15.80
2019-05-20T23:05:20.850Z,15.80
2019-05-20T23:06:26.339Z,15.80
2019-05-20T23:07:31.292Z,15.70
2019-05-20T23:08:36.763Z,15.70
2019-05-20T23:09:41.689Z,15.70
2019-05-20T23:10:47.076Z,15.70
2019-05-20T23:11:51.884Z,15.70
2019-05-20T23:12:57.415Z,15.70
2019-05-20T23:14:02.563Z,15.80
2019-05-20T23:15:08.671Z,15.90
2019-05-20T23:16:13.576Z,15.90
2019-05-20T23:17:19.045Z,15.90
2019-05-20T23:18:24.020Z,16.00
2019-05-20T23:19:29.402Z,16.00
2019-05-20T23:20:34.189Z,15.90
2019-05-20T23:21:39.699Z,15.90
2019-05-20T23:22:44.637Z,16.00
2019-05-20T23:23:50.031Z,16.00
2019-05-20T23:24:54.915Z,16.00
2019-05-20T23:26:00.291Z,16.00
2019-05-20T23:27:05.309Z,16.00
2019-05-20T23:28:10.732Z,16.10
2019-05-20T23:29:15.619Z,16.00
2019-05-20T23:30:21.087Z,16.00
2019-05-20T23:31:26.056Z,16.00
2019-05-20T23:32:31.558Z,16.10
2019-05-20T23:33:36.363Z,16.00
2019-05-20T23:34:41.707Z,16.10
2019-05-20T23:35:46.719Z,16.00
2019-05-20T23:36:52.241Z,16.00
2019-05-20T23:37:57.093Z,15.90
2019-05-20T23:39:02.505Z,15.90
2019-05-20T23:40:07.937Z,15.90
2019-05-20T23:41:13.456Z,15.80
2019-05-20T23:42:18.241Z,15.80
2019-05-20T23:43:23.622Z,15.80
2019-05-20T23:44:28.504Z,15.80
2019-05-20T23:45:33.996Z,15.80
2019-05-20T23:46:38.896Z,15.70
2019-05-20T23:47:44.369Z,15.80
2019-05-20T23:48:49.297Z,15.70
2019-05-20T23:49:54.800Z,15.70
2019-05-20T23:50:59.590Z,15.60
2019-05-20T23:52:05.118Z,15.60
2019-05-20T23:53:10.051Z,15.60
2019-05-20T23:54:15.572Z,15.50
2019-05-20T23:55:20.599Z,15.50
2019-05-20T23:56:26.114Z,15.50
2019-05-20T23:57:30.860Z,15.50
2019-05-20T23:58:36.323Z,15.40
2019-05-20T23:59:41.279Z,15.40
